createdAt,value
2018-02-14T00:01:43.691Z,78.00
2018-02-14T00:04:11.310Z,77.60
2018-02-14T00:06:38.953Z,77.50
2018-02-14T00:09:06.526Z,77.40
2018-02-14T00:11:34.223Z,77.00
2018-02-14T00:14:01.826Z,77.30
2018-02-14T00:16:29.424Z,77.10
2018-02-14T00:18:57.106Z,78.00
2018-02-14T00:21:24.698Z,77.50
2018-02-14T00:23:53.053Z,77.00
2018-02-14T00:26:20.711Z,77.90
2018-02-14T00:28:48.408Z,78.30
2018-02-14T00:31:16.022Z,76.90
2018-02-14T00:33:43.699Z,78.00
2018-02-14T00:36:11.402Z,76.40
2018-02-14T00:38:38.995Z,76.30
2018-02-14T00:41:06.584Z,76.00
2018-02-14T00:43:34.299Z,75.80
2018-02-14T00:46:01.977Z,75.60
2018-02-14T00:48:29.653Z,76.70
2018-02-14T00:50:57.342Z,76.40
2018-02-14T00:53:24.994Z,76.60
2018-02-14T00:55:52.671Z,76.00
2018-02-14T00:58:20.355Z,75.30
2018-02-14T01:00:47.980Z,75.00
2018-02-14T01:03:15.558Z,75.00
2018-02-14T01:05:43.186Z,75.90
2018-02-14T01:08:10.778Z,76.00
2018-02-14T01:10:38.458Z,76.20
2018-02-14T01:13:06.057Z,76.70
2018-02-14T01:15:33.730Z,76.90
2018-02-14T01:18:01.361Z,77.50
2018-02-14T01:20:34.885Z,76.80
2018-02-14T01:23:02.498Z,76.80
2018-02-14T01:25:30.099Z,77.30
2018-02-14T01:27:57.674Z,78.20
2018-02-14T01:30:26.268Z,78.70
2018-02-14T01:32:53.939Z,77.90
2018-02-14T01:35:21.558Z,77.10
2018-02-14T01:37:49.228Z,76.50
2018-02-14T01:40:16.862Z,76.80
2018-02-14T01:42:44.530Z,77.90
2018-02-14T01:45:12.136Z,77.90
2018-02-14T01:47:39.734Z,77.30
2018-02-14T01:50:07.420Z,78.20
2018-02-14T01:52:35.040Z,77.50
2018-02-14T01:55:02.670Z,79.10
2018-02-14T01:57:30.341Z,78.10
2018-02-14T01:59:57.925Z,77.90
2018-02-14T02:02:25.595Z,76.50
2018-02-14T02:04:53.192Z,76.90
2018-02-14T02:07:20.768Z,76.70
2018-02-14T02:09:48.379Z,78.20
2018-02-14T02:12:16.031Z,77.90
2018-02-14T02:14:43.723Z,78.50
2018-02-14T02:17:11.392Z,78.40
2018-02-14T02:19:39.063Z,78.40
2018-02-14T02:22:06.671Z,77.20
2018-02-14T02:24:34.358Z,78.70
2018-02-14T02:27:01.958Z,78.40
2018-02-14T02:29:29.585Z,78.50
2018-02-14T02:31:57.238Z,79.60
2018-02-14T02:34:24.840Z,79.70
2018-02-14T02:36:52.439Z,79.70
2018-02-14T02:39:31.791Z,79.20
2018-02-14T02:41:59.449Z,79.60
2018-02-14T02:44:27.123Z,79.50
2018-02-14T02:46:54.803Z,79.90
2018-02-14T02:49:22.458Z,79.60
2018-02-14T02:51:50.070Z,79.20
2018-02-14T02:54:17.734Z,79.50
2018-02-14T02:56:45.357Z,79.80
2018-02-14T02:59:12.945Z,79.60
2018-02-14T03:01:40.544Z,79.50
2018-02-14T03:04:08.211Z,80.30
2018-02-14T03:06:35.814Z,80.20
2018-02-14T03:09:03.414Z,80.10
2018-02-14T03:11:31.029Z,79.90
2018-02-14T03:13:58.620Z,79.90
2018-02-14T03:16:26.280Z,79.70
2018-02-14T03:18:53.903Z,80.10
2018-02-14T03:21:21.494Z,80.10
2018-02-14T03:23:49.154Z,80.00
2018-02-14T03:26:16.791Z,80.50
2018-02-14T03:28:44.381Z,80.10
2018-02-14T03:31:11.974Z,80.70
2018-02-14T03:33:39.552Z,81.40
2018-02-14T03:36:07.159Z,80.80
2018-02-14T03:38:34.829Z,80.50
2018-02-14T03:41:02.535Z,79.50
2018-02-14T03:43:30.206Z,78.60
2018-02-14T03:45:57.809Z,79.60
2018-02-14T03:48:25.474Z,80.10
2018-02-14T03:50:53.167Z,80.90
2018-02-14T03:53:20.767Z,80.60
2018-02-14T03:55:48.379Z,80.90
2018-02-14T03:58:16.047Z,80.40
2018-02-14T04:00:43.728Z,79.90
2018-02-14T04:03:11.394Z,80.10
2018-02-14T04:05:39.004Z,80.70
2018-02-14T04:08:06.594Z,80.30
2018-02-14T04:10:34.218Z,80.50
2018-02-14T04:13:01.833Z,80.10
2018-02-14T04:15:29.440Z,80.60
2018-02-14T04:17:57.017Z,79.60
2018-02-14T04:20:24.619Z,80.70
2018-02-14T04:22:52.278Z,80.50
2018-02-14T04:25:19.975Z,80.20
2018-02-14T04:27:47.587Z,80.70
2018-02-14T04:30:27.092Z,79.00
2018-02-14T04:32:54.765Z,79.20
2018-02-14T04:35:22.388Z,80.00
2018-02-14T04:37:49.971Z,78.80
2018-02-14T04:40:17.581Z,79.80
2018-02-14T04:42:45.174Z,80.60
2018-02-14T04:45:12.834Z,80.70
2018-02-14T04:47:40.498Z,80.90
2018-02-14T04:50:08.119Z,81.50
2018-02-14T04:52:35.890Z,81.80
2018-02-14T04:55:03.492Z,81.50
2018-02-14T04:57:31.208Z,81.00
2018-02-14T04:59:58.801Z,81.10
2018-02-14T05:02:26.428Z,80.40
2018-02-14T05:04:54.037Z,80.50
2018-02-14T05:07:21.700Z,81.20
2018-02-14T05:09:49.318Z,80.70
2018-02-14T05:12:16.949Z,80.70
2018-02-14T05:14:44.623Z,80.80
2018-02-14T05:17:12.239Z,81.10
2018-02-14T05:19:39.828Z,81.20
2018-02-14T05:22:07.406Z,81.40
2018-02-14T05:24:35.006Z,80.80
2018-02-14T05:27:02.588Z,81.10
2018-02-14T05:29:30.300Z,80.80
2018-02-14T05:31:57.971Z,80.80
2018-02-14T05:34:25.602Z,81.40
2018-02-14T05:36:53.200Z,81.30
2018-02-14T05:39:20.797Z,81.30
2018-02-14T05:41:48.374Z,80.80
2018-02-14T05:44:15.990Z,80.40
2018-02-14T05:46:43.590Z,80.70
2018-02-14T05:49:11.190Z,81.50
2018-02-14T05:51:38.778Z,81.70
2018-02-14T05:54:06.379Z,80.80
2018-02-14T05:56:33.982Z,81.60
2018-02-14T05:59:01.626Z,81.20
2018-02-14T06:01:29.339Z,81.50
2018-02-14T06:03:56.989Z,81.10
2018-02-14T06:06:24.609Z,80.80
2018-02-14T06:08:52.295Z,81.00
2018-02-14T06:11:19.911Z,81.50
2018-02-14T06:13:47.519Z,80.90
2018-02-14T06:16:15.156Z,81.50
2018-02-14T06:18:42.768Z,81.70
2018-02-14T06:21:10.372Z,81.70
2018-02-14T06:23:38.095Z,81.50
2018-02-14T06:26:05.810Z,81.80
2018-02-14T06:28:33.502Z,81.80
2018-02-14T06:31:01.207Z,82.10
2018-02-14T06:33:28.829Z,81.40
2018-02-14T06:35:56.410Z,81.90
2018-02-14T06:38:24.023Z,81.20
2018-02-14T06:40:51.623Z,82.30
2018-02-14T06:43:19.234Z,82.10
2018-02-14T06:45:46.952Z,82.60
2018-02-14T06:48:14.556Z,82.60
2018-02-14T06:50:42.230Z,82.50
2018-02-14T06:53:09.927Z,82.30
2018-02-14T06:55:37.619Z,81.70
2018-02-14T06:58:05.347Z,82.00
2018-02-14T07:00:33.058Z,82.80
2018-02-14T07:03:00.705Z,81.50
2018-02-14T07:05:28.421Z,81.80
2018-02-14T07:07:56.067Z,80.60
2018-02-14T07:10:23.825Z,79.50
2018-02-14T07:12:51.537Z,81.10
2018-02-14T07:15:19.208Z,81.40
2018-02-14T07:17:46.826Z,80.40
2018-02-14T07:20:14.532Z,79.60
2018-02-14T07:22:42.156Z,79.30
2018-02-14T07:25:09.771Z,79.70
2018-02-14T07:27:37.679Z,79.30
2018-02-14T07:30:05.407Z,78.50
2018-02-14T07:32:33.206Z,76.50
2018-02-14T07:35:00.846Z,76.10
2018-02-14T07:37:28.517Z,75.50
2018-02-14T07:39:56.190Z,73.90
2018-02-14T07:42:23.790Z,73.70
2018-02-14T07:44:52.229Z,72.70
2018-02-14T07:47:21.264Z,71.00
2018-02-14T07:49:49.102Z,72.40
2018-02-14T07:52:16.803Z,71.40
2018-02-14T07:54:44.543Z,70.90
2018-02-14T07:57:12.226Z,70.60
2018-02-14T07:59:39.927Z,70.90
2018-02-14T08:02:07.636Z,69.70
2018-02-14T08:04:35.689Z,69.30
2018-02-14T08:07:03.489Z,69.00
2018-02-14T08:09:31.174Z,67.90
2018-02-14T08:11:58.954Z,68.80
2018-02-14T08:14:26.941Z,67.80
2018-02-14T08:16:56.395Z,67.30
2018-02-14T08:19:28.793Z,66.20
2018-02-14T08:22:01.264Z,65.90
2018-02-14T08:24:29.889Z,64.70
2018-02-14T08:27:01.773Z,64.30
2018-02-14T08:29:30.395Z,65.70
2018-02-14T08:31:58.345Z,65.10
2018-02-14T08:34:26.144Z,64.00
2018-02-14T08:36:59.041Z,64.50
2018-02-14T08:39:29.044Z,64.60
2018-02-14T08:41:57.717Z,64.60
2018-02-14T08:44:30.720Z,64.00
2018-02-14T08:47:00.096Z,62.70
2018-02-14T08:49:27.833Z,62.10
2018-02-14T08:51:56.658Z,61.10
2018-02-14T08:54:25.830Z,60.30
2018-02-14T08:56:57.547Z,62.40
2018-02-14T08:59:26.313Z,61.90
2018-02-14T09:01:55.433Z,61.10
2018-02-14T09:04:29.407Z,61.30
2018-02-14T09:06:59.083Z,60.80
2018-02-14T09:09:30.882Z,61.20
2018-02-14T09:11:58.936Z,59.90
2018-02-14T09:14:27.363Z,59.80
2018-02-14T09:16:56.969Z,59.20
2018-02-14T09:19:28.903Z,59.70
2018-02-14T09:21:57.617Z,59.60
2018-02-14T09:24:26.493Z,58.10
2018-02-14T09:26:54.772Z,58.00
2018-02-14T09:29:25.482Z,58.60
2018-02-14T09:31:53.441Z,57.50
2018-02-14T09:34:24.904Z,57.00
2018-02-14T09:36:54.175Z,58.40
2018-02-14T09:39:22.122Z,58.60
2018-02-14T09:41:49.951Z,56.60
2018-02-14T09:44:17.723Z,56.40
2018-02-14T09:46:45.433Z,56.60
2018-02-14T09:49:13.480Z,56.00
2018-02-14T09:51:41.200Z,55.30
2018-02-14T09:54:08.836Z,55.60
2018-02-14T09:56:36.695Z,54.90
2018-02-14T09:59:04.357Z,54.40
2018-02-14T10:01:32.041Z,53.80
2018-02-14T10:03:59.678Z,53.60
2018-02-14T10:06:27.347Z,53.20
2018-02-14T10:08:55.053Z,52.70
2018-02-14T10:11:22.724Z,52.20
2018-02-14T10:13:50.399Z,51.40
2018-02-14T10:16:18.610Z,50.70
2018-02-14T10:18:47.490Z,50.60
2018-02-14T10:21:20.280Z,48.90
2018-02-14T10:23:49.480Z,51.10
2018-02-14T10:26:18.078Z,49.90
2018-02-14T10:28:46.817Z,48.70
2018-02-14T10:31:14.437Z,48.00
2018-02-14T10:33:42.397Z,48.70
2018-02-14T10:36:10.501Z,48.00
2018-02-14T10:38:38.517Z,48.00
2018-02-14T10:41:06.357Z,47.50
2018-02-14T10:43:33.959Z,47.70
2018-02-14T10:46:01.705Z,46.90
2018-02-14T10:48:29.443Z,47.80
2018-02-14T10:50:57.311Z,45.30
2018-02-14T10:53:24.975Z,44.30
2018-02-14T10:55:53.362Z,46.10
2018-02-14T10:58:20.983Z,44.90
2018-02-14T11:00:54.308Z,44.00
2018-02-14T11:03:27.673Z,45.00
2018-02-14T11:06:01.520Z,43.70
2018-02-14T11:08:29.207Z,42.90
2018-02-14T11:10:57.065Z,43.60
2018-02-14T11:13:24.780Z,42.80
2018-02-14T11:15:52.394Z,43.30
2018-02-14T11:18:20.024Z,44.10
2018-02-14T11:20:47.658Z,44.00
2018-02-14T11:23:15.248Z,44.70
2018-02-14T11:25:42.884Z,43.90
2018-02-14T11:28:10.491Z,44.40
2018-02-14T11:30:38.170Z,41.70
2018-02-14T11:33:05.828Z,42.30
2018-02-14T11:35:33.501Z,43.70
2018-02-14T11:38:01.105Z,41.40
2018-02-14T11:40:28.687Z,42.20
2018-02-14T11:42:56.376Z,41.80
2018-02-14T11:45:23.980Z,42.50
2018-02-14T11:47:51.605Z,41.70
2018-02-14T11:50:19.194Z,41.70
2018-02-14T11:52:46.792Z,40.70
2018-02-14T11:55:14.454Z,41.30
2018-02-14T11:57:42.170Z,40.50
2018-02-14T12:00:09.776Z,40.90
2018-02-14T12:02:37.418Z,40.90
2018-02-14T12:05:05.016Z,39.70
2018-02-14T12:07:32.639Z,40.10
2018-02-14T12:10:00.323Z,38.30
2018-02-14T12:12:28.587Z,38.50
2018-02-14T12:14:56.436Z,37.40
2018-02-14T12:17:24.619Z,36.60
2018-02-14T12:19:53.128Z,37.80
2018-02-14T12:22:21.037Z,36.40
2018-02-14T12:24:48.733Z,36.20
2018-02-14T12:27:16.376Z,37.50
2018-02-14T12:29:44.186Z,36.30
2018-02-14T12:32:12.047Z,35.10
2018-02-14T12:34:40.226Z,34.20
2018-02-14T12:37:08.460Z,35.20
2018-02-14T12:39:36.207Z,32.00
2018-02-14T12:42:03.870Z,32.20
2018-02-14T12:44:31.636Z,32.80
2018-02-14T12:46:59.445Z,33.10
2018-02-14T12:49:28.104Z,31.80
2018-02-14T12:51:56.783Z,31.90
2018-02-14T12:54:25.125Z,33.60
2018-02-14T12:56:53.090Z,33.40
2018-02-14T12:59:21.163Z,32.00
2018-02-14T13:01:49.122Z,31.70
2018-02-14T13:04:16.762Z,33.00
2018-02-14T13:06:44.877Z,32.50
2018-02-14T13:09:12.761Z,33.10
2018-02-14T13:11:40.378Z,31.60
2018-02-14T13:14:09.036Z,33.20
2018-02-14T13:16:37.130Z,29.60
2018-02-14T13:19:04.951Z,30.20
2018-02-14T13:21:32.647Z,31.50
2018-02-14T13:24:00.296Z,31.70
2018-02-14T13:26:27.928Z,30.00
2018-02-14T13:28:55.839Z,29.80
2018-02-14T13:31:25.233Z,29.70
2018-02-14T13:33:55.175Z,28.40
2018-02-14T13:36:25.086Z,28.20
2018-02-14T13:38:54.382Z,29.10
2018-02-14T13:41:22.982Z,28.10
2018-02-14T13:43:52.356Z,28.60
2018-02-14T13:46:23.448Z,27.50
2018-02-14T13:48:51.962Z,28.70
2018-02-14T13:51:19.633Z,29.20
2018-02-14T13:53:47.402Z,27.50
2018-02-14T13:56:15.917Z,27.80
2018-02-14T13:58:44.131Z,28.10
2018-02-14T14:01:13.321Z,27.70
2018-02-14T14:03:41.044Z,27.80
2018-02-14T14:06:09.486Z,28.20
2018-02-14T14:11:16.247Z,26.00
2018-02-14T14:13:43.896Z,27.70
2018-02-14T14:16:12.749Z,28.20
2018-02-14T14:18:40.393Z,27.40
2018-02-14T14:21:14.710Z,27.10
2018-02-14T14:23:45.777Z,27.50
2018-02-14T14:26:19.870Z,28.50
2018-02-14T14:28:48.913Z,26.70
2018-02-14T14:33:55.547Z,27.00
2018-02-14T14:36:30.204Z,28.00
2018-02-14T14:39:01.154Z,27.70
2018-02-14T14:41:30.812Z,27.00
2018-02-14T14:44:02.298Z,26.80
2018-02-14T14:46:30.865Z,27.60
2018-02-14T14:48:59.492Z,27.10
2018-02-14T14:51:29.865Z,27.90
2018-02-14T14:54:00.749Z,26.80
2018-02-14T14:56:32.108Z,29.20
2018-02-14T14:58:59.917Z,30.00
2018-02-14T15:01:29.282Z,30.10
2018-02-14T15:03:58.487Z,30.10
2018-02-14T15:06:27.557Z,30.60
2018-02-14T15:08:56.035Z,31.10
2018-02-14T15:11:25.101Z,30.10
2018-02-14T15:16:32.854Z,29.60
2018-02-14T15:19:00.504Z,31.00
2018-02-14T15:21:30.570Z,33.00
2018-02-14T15:24:00.455Z,32.10
2018-02-14T15:26:29.170Z,33.60
2018-02-14T15:28:59.700Z,33.60
2018-02-14T15:31:31.035Z,35.00
2018-02-14T15:34:01.591Z,35.60
2018-02-14T15:36:29.213Z,36.10
2018-02-14T15:38:56.908Z,36.80
2018-02-14T15:41:24.533Z,36.80
2018-02-14T15:43:53.758Z,37.60
2018-02-14T15:46:21.578Z,37.50
2018-02-14T15:48:49.315Z,37.50
2018-02-14T15:51:17.030Z,38.40
2018-02-14T15:53:44.704Z,38.80
2018-02-14T15:56:12.411Z,38.90
2018-02-14T15:58:40.505Z,39.80
2018-02-14T16:01:08.186Z,40.40
2018-02-14T16:03:35.827Z,40.50
2018-02-14T16:06:03.476Z,41.20
2018-02-14T16:08:31.136Z,41.60
2018-02-14T16:10:58.794Z,41.50
2018-02-14T16:13:26.399Z,41.30
2018-02-14T16:15:54.015Z,41.60
2018-02-14T16:18:21.619Z,41.40
2018-02-14T16:20:49.235Z,42.40
2018-02-14T16:23:16.870Z,41.30
2018-02-14T16:25:44.520Z,43.80
2018-02-14T16:28:12.175Z,44.10
2018-02-14T16:30:39.880Z,44.00
2018-02-14T16:33:07.511Z,44.40
2018-02-14T16:35:35.155Z,44.00
2018-02-14T16:38:02.824Z,43.40
2018-02-14T16:40:30.469Z,43.60
2018-02-14T16:42:58.167Z,44.60
2018-02-14T16:45:25.925Z,44.80
2018-02-14T16:47:53.516Z,44.90
2018-02-14T16:50:21.148Z,45.10
2018-02-14T18:00:42.164Z,51.90
2018-02-14T18:03:09.762Z,52.50
2018-02-14T18:05:37.378Z,52.00
2018-02-14T18:08:05.764Z,53.50
2018-02-14T18:10:33.364Z,53.40
2018-02-14T18:13:01.304Z,53.80
2018-02-14T18:15:28.965Z,53.70
2018-02-14T18:17:56.582Z,54.50
2018-02-14T18:20:24.173Z,54.80
2018-02-14T18:22:51.876Z,55.90
2018-02-14T18:25:19.564Z,56.20
2018-02-14T18:27:47.987Z,57.90
2018-02-14T18:30:15.612Z,57.80
2018-02-14T18:32:43.330Z,57.90
2018-02-14T18:35:10.938Z,57.90
2018-02-14T18:37:38.610Z,57.90
2018-02-14T18:40:06.359Z,58.50
2018-02-14T18:42:34.000Z,57.40
2018-02-14T18:45:02.469Z,57.20
2018-02-14T18:47:30.134Z,56.90
2018-02-14T18:49:57.879Z,56.80
2018-02-14T18:52:25.603Z,57.40
2018-02-14T18:54:54.209Z,57.50
2018-02-14T18:57:22.596Z,57.30
2018-02-14T18:59:50.994Z,56.90
2018-02-14T19:02:19.376Z,56.30
2018-02-14T19:04:46.981Z,56.30
2018-02-14T19:07:14.752Z,55.90
2018-02-14T19:09:43.260Z,55.60
2018-02-14T19:12:11.418Z,55.20
2018-02-14T19:14:39.008Z,54.70
2018-02-14T19:17:06.827Z,54.50
2018-02-14T19:19:34.448Z,54.10
2018-02-14T19:22:02.065Z,54.20
2018-02-14T19:24:29.936Z,54.20
2018-02-14T19:26:59.460Z,54.00
2018-02-14T19:29:27.064Z,53.10
2018-02-14T19:31:54.969Z,53.60
2018-02-14T19:34:22.920Z,53.70
2018-02-14T19:36:50.641Z,53.50
2018-02-14T19:39:18.559Z,53.10
2018-02-14T19:41:46.220Z,53.00
2018-02-14T19:44:14.455Z,52.40
2018-02-14T19:46:42.983Z,52.80
2018-02-14T19:49:10.610Z,53.20
2018-02-14T19:51:38.972Z,53.00
2018-02-14T19:54:06.601Z,52.70
2018-02-14T19:56:34.566Z,52.70
2018-02-14T19:59:02.510Z,52.70
2018-02-14T20:01:30.202Z,52.90
2018-02-14T20:03:57.862Z,52.20
2018-02-14T20:06:25.461Z,52.80
2018-02-14T20:08:53.079Z,52.30
2018-02-14T20:11:20.667Z,52.40
2018-02-14T20:13:48.276Z,52.60
2018-02-14T20:16:15.902Z,52.60
2018-02-14T20:18:43.562Z,52.40
2018-02-14T20:21:12.999Z,53.50
2018-02-14T20:23:41.002Z,52.90
2018-02-14T20:26:08.676Z,52.60
2018-02-14T20:28:36.592Z,52.90
2018-02-14T20:31:04.188Z,53.20
2018-02-14T20:33:31.795Z,53.40
2018-02-14T20:36:00.150Z,53.50
2018-02-14T20:38:27.746Z,53.20
2018-02-14T20:40:55.352Z,52.80
2018-02-14T20:43:23.017Z,52.90
2018-02-14T20:45:50.624Z,52.90
2018-02-14T20:48:18.263Z,52.50
2018-02-14T20:50:45.889Z,52.40
2018-02-14T20:53:13.516Z,52.80
2018-02-14T20:55:41.108Z,52.70
2018-02-14T20:58:08.711Z,53.20
2018-02-14T21:00:36.321Z,53.20
2018-02-14T21:03:04.034Z,53.70
2018-02-14T21:05:31.649Z,53.00
2018-02-14T21:07:59.285Z,53.00
2018-02-14T21:10:26.862Z,53.30
2018-02-14T21:12:54.555Z,53.10
2018-02-14T21:15:22.939Z,52.90
2018-02-14T21:17:50.610Z,52.70
2018-02-14T21:20:18.217Z,52.90
2018-02-14T21:22:45.834Z,52.60
2018-02-14T21:25:13.526Z,52.90
2018-02-14T21:27:41.154Z,52.90
2018-02-14T21:30:08.749Z,52.80
2018-02-14T21:32:36.328Z,53.10
2018-02-14T21:35:03.941Z,52.90
2018-02-14T21:37:31.567Z,53.40
2018-02-14T21:39:59.195Z,53.60
2018-02-14T21:42:26.786Z,53.90
2018-02-14T21:44:54.470Z,53.80
2018-02-14T21:47:22.147Z,53.80
2018-02-14T21:49:49.778Z,54.10
2018-02-14T21:52:17.465Z,54.00
2018-02-14T21:54:45.106Z,53.80
2018-02-14T21:57:13.528Z,54.60
2018-02-14T21:59:41.134Z,54.50
2018-02-14T22:02:08.725Z,54.30
2018-02-14T22:04:36.583Z,54.20
2018-02-14T22:07:04.229Z,54.50
2018-02-14T22:09:31.857Z,54.40
2018-02-14T22:12:00.286Z,54.60
2018-02-14T22:14:27.935Z,54.50
2018-02-14T22:16:55.569Z,54.40
2018-02-14T22:19:23.174Z,54.40
2018-02-14T22:21:51.510Z,54.80
2018-02-14T22:24:19.186Z,55.30
2018-02-14T22:26:46.811Z,54.70
2018-02-14T22:29:14.403Z,54.70
2018-02-14T22:31:41.991Z,54.80
2018-02-14T22:34:09.588Z,54.90
2018-02-14T22:36:37.177Z,54.80
2018-02-14T22:39:04.849Z,55.40
2018-02-14T22:41:33.284Z,55.40
2018-02-14T22:44:00.928Z,55.30
2018-02-14T22:46:29.268Z,55.60
2018-02-14T22:48:56.892Z,55.50
2018-02-14T22:51:24.489Z,55.90
2018-02-14T22:53:52.071Z,56.30
2018-02-14T22:56:19.686Z,56.10
2018-02-14T22:58:48.134Z,56.00
2018-02-14T23:01:15.767Z,56.00
2018-02-14T23:03:44.123Z,56.20
2018-02-14T23:06:11.723Z,56.10
2018-02-14T23:08:40.084Z,56.20
2018-02-14T23:11:07.716Z,56.10
2018-02-14T23:13:35.405Z,56.10
2018-02-14T23:16:03.058Z,56.00
2018-02-14T23:18:30.655Z,55.70
2018-02-14T23:20:58.259Z,56.00
2018-02-14T23:23:25.844Z,56.00
2018-02-14T23:25:53.442Z,55.80
2018-02-14T23:28:21.024Z,56.00
2018-02-14T23:30:48.626Z,55.80
2018-02-14T23:33:16.279Z,56.00
2018-02-14T23:35:43.894Z,55.80
2018-02-14T23:38:12.272Z,55.90
2018-02-14T23:40:40.707Z,55.80
2018-02-14T23:43:08.293Z,55.70
2018-02-14T23:45:35.980Z,55.50
2018-02-14T23:48:03.685Z,55.80
2018-02-14T23:50:31.442Z,55.70
2018-02-14T23:52:59.163Z,55.50
2018-02-14T23:55:26.855Z,55.70
2018-02-14T23:57:54.534Z,55.60
